sensor_id;sensor_type;location;lat;lon;timestamp;pressure;altitude;pressure_sealevel;temperature;humidity
76484;BME280;65318;-33.924;18.406;2023-06-26T00:01:12;99375.26;;;17.57;59.56
76484;BME280;65318;-33.924;18.406;2023-06-26T00:03:37;99379.89;;;18.03;59.13
76484;BME280;65318;-33.924;18.406;2023-06-26T00:06:03;99382.82;;;17.67;60.02
76484;BME280;65318;-33.924;18.406;2023-06-26T00:08:29;99376.33;;;17.98;60.07
76484;BME280;65318;-33.924;18.406;2023-06-26T00:10:54;99373.55;;;18.09;59.51
76484;BME280;65318;-33.924;18.406;2023-06-26T00:13:20;99371.91;;;17.69;59.92
76484;BME280;65318;-33.924;18.406;2023-06-26T00:15:45;99368.80;;;17.61;60.14
76484;BME280;65318;-33.924;18.406;2023-06-26T00:18:11;99367.18;;;17.05;61.22
76484;BME280;65318;-33.924;18.406;2023-06-26T00:20:37;99360.66;;;17.89;59.54
76484;BME280;65318;-33.924;18.406;2023-06-26T00:23:02;99363.25;;;17.91;59.59
76484;BME280;65318;-33.924;18.406;2023-06-26T00:25:27;99366.47;;;17.38;60.52
76484;BME280;65318;-33.924;18.406;2023-06-26T00:27:53;99366.58;;;17.20;61.74
76484;BME280;65318;-33.924;18.406;2023-06-26T00:30:19;99367.08;;;17.26;61.23
76484;BME280;65318;-33.924;18.406;2023-06-26T00:32:44;99367.98;;;17.50;60.47
76484;BME280;65318;-33.924;18.406;2023-06-26T00:35:10;99359.86;;;17.88;59.42
76484;BME280;65318;-33.924;18.406;2023-06-26T00:37:35;99351.65;;;17.57;59.96
76484;BME280;65318;-33.924;18.406;2023-06-26T00:40:01;99360.78;;;17.36;60.37
76484;BME280;65318;-33.924;18.406;2023-06-26T00:42:26;99360.37;;;16.85;62.24
76484;BME280;65318;-33.924;18.406;2023-06-26T00:44:52;99357.01;;;18.24;59.54
76484;BME280;65318;-33.924;18.406;2023-06-26T00:47:18;99349.32;;;17.91;59.97
76484;BME280;65318;-33.924;18.406;2023-06-26T00:49:43;99347.96;;;17.64;59.55
76484;BME280;65318;-33.924;18.406;2023-06-26T00:52:09;99345.42;;;16.70;61.74
76484;BME280;65318;-33.924;18.406;2023-06-26T00:54:34;99346.00;;;17.40;61.61
76484;BME280;65318;-33.924;18.406;2023-06-26T00:57:00;99343.98;;;17.09;60.97
76484;BME280;65318;-33.924;18.406;2023-06-26T00:59:25;99351.11;;;16.72;61.82
76484;BME280;65318;-33.924;18.406;2023-06-26T01:01:51;99344.59;;;17.64;60.37
76484;BME280;65318;-33.924;18.406;2023-06-26T01:04:16;99343.51;;;17.18;61.13
76484;BME280;65318;-33.924;18.406;2023-06-26T01:06:42;99340.40;;;17.20;60.96
76484;BME280;65318;-33.924;18.406;2023-06-26T01:09:08;99342.70;;;16.79;61.27
76484;BME280;65318;-33.924;18.406;2023-06-26T01:11:33;99335.60;;;17.88;59.57
76484;BME280;65318;-33.924;18.406;2023-06-26T01:14:00;99331.99;;;17.60;59.20
76484;BME280;65318;-33.924;18.406;2023-06-26T01:16:25;99334.75;;;16.59;61.62
76484;BME280;65318;-33.924;18.406;2023-06-26T01:18:51;99329.03;;;17.90;59.24
76484;BME280;65318;-33.924;18.406;2023-06-26T01:21:16;99331.61;;;17.54;59.99
76484;BME280;65318;-33.924;18.406;2023-06-26T01:23:53;99335.63;;;17.24;61.38
76484;BME280;65318;-33.924;18.406;2023-06-26T01:26:16;99331.88;;;17.18;61.37
76484;BME280;65318;-33.924;18.406;2023-06-26T01:28:33;99329.89;;;16.86;60.91
76484;BME280;65318;-33.924;18.406;2023-06-26T01:30:58;99327.33;;;16.98;61.20
76484;BME280;65318;-33.924;18.406;2023-06-26T01:33:23;99321.44;;;17.62;60.29
76484;BME280;65318;-33.924;18.406;2023-06-26T01:35:49;99318.56;;;17.04;61.21
76484;BME280;65318;-33.924;18.406;2023-06-26T01:38:17;99317.09;;;17.69;59.56
76484;BME280;65318;-33.924;18.406;2023-06-26T01:40:40;99317.84;;;16.68;61.46
76484;BME280;65318;-33.924;18.406;2023-06-26T01:43:09;99312.54;;;17.47;59.27
76484;BME280;65318;-33.924;18.406;2023-06-26T01:45:33;99313.42;;;17.00;60.33
76484;BME280;65318;-33.924;18.406;2023-06-26T01:47:59;99318.44;;;16.84;60.70
76484;BME280;65318;-33.924;18.406;2023-06-26T01:50:26;99315.17;;;16.90;60.43
76484;BME280;65318;-33.924;18.406;2023-06-26T01:52:56;99313.96;;;16.81;60.79
76484;BME280;65318;-33.924;18.406;2023-06-26T01:55:20;99308.54;;;16.41;62.25
76484;BME280;65318;-33.924;18.406;2023-06-26T01:57:39;99307.56;;;16.46;62.23
76484;BME280;65318;-33.924;18.406;2023-06-26T02:00:06;99312.20;;;16.50;61.96
76484;BME280;65318;-33.924;18.406;2023-06-26T02:02:30;99311.38;;;15.87;63.22
76484;BME280;65318;-33.924;18.406;2023-06-26T02:04:56;99311.99;;;16.12;62.56
76484;BME280;65318;-33.924;18.406;2023-06-26T02:07:21;99305.96;;;16.62;61.70
76484;BME280;65318;-33.924;18.406;2023-06-26T02:09:47;99298.74;;;16.53;62.03
76484;BME280;65318;-33.924;18.406;2023-06-26T02:12:12;99296.26;;;16.87;61.34
76484;BME280;65318;-33.924;18.406;2023-06-26T02:14:43;99302.88;;;17.03;61.24
76484;BME280;65318;-33.924;18.406;2023-06-26T02:17:03;99303.32;;;16.54;61.63
76484;BME280;65318;-33.924;18.406;2023-06-26T02:19:29;99302.15;;;16.77;61.62
76484;BME280;65318;-33.924;18.406;2023-06-26T02:21:54;99301.88;;;15.93;62.71
76484;BME280;65318;-33.924;18.406;2023-06-26T02:24:20;99299.54;;;16.15;62.87
76484;BME280;65318;-33.924;18.406;2023-06-26T02:26:45;99296.00;;;16.01;63.12
76484;BME280;65318;-33.924;18.406;2023-06-26T02:29:11;99293.05;;;15.94;63.33
76484;BME280;65318;-33.924;18.406;2023-06-26T02:31:36;99292.64;;;16.30;62.99
76484;BME280;65318;-33.924;18.406;2023-06-26T02:34:02;99296.85;;;16.14;63.57
76484;BME280;65318;-33.924;18.406;2023-06-26T02:36:27;99298.48;;;16.21;63.18
76484;BME280;65318;-33.924;18.406;2023-06-26T02:38:53;99293.22;;;16.03;62.94
76484;BME280;65318;-33.924;18.406;2023-06-26T02:41:18;99295.07;;;15.94;63.19
76484;BME280;65318;-33.924;18.406;2023-06-26T02:43:44;99300.29;;;16.11;63.25
76484;BME280;65318;-33.924;18.406;2023-06-26T02:46:09;99299.91;;;16.26;62.82
76484;BME280;65318;-33.924;18.406;2023-06-26T02:48:35;99296.97;;;16.37;61.74
76484;BME280;65318;-33.924;18.406;2023-06-26T02:51:00;99301.65;;;16.86;61.11
76484;BME280;65318;-33.924;18.406;2023-06-26T02:53:26;99296.72;;;16.33;62.44
76484;BME280;65318;-33.924;18.406;2023-06-26T02:55:52;99295.01;;;17.14;60.55
76484;BME280;65318;-33.924;18.406;2023-06-26T02:58:17;99298.73;;;16.53;62.04
76484;BME280;65318;-33.924;18.406;2023-06-26T03:00:43;99297.93;;;15.93;62.76
76484;BME280;65318;-33.924;18.406;2023-06-26T03:03:08;99292.26;;;15.94;61.98
76484;BME280;65318;-33.924;18.406;2023-06-26T03:05:34;99301.08;;;16.02;62.98
76484;BME280;65318;-33.924;18.406;2023-06-26T03:07:59;99292.86;;;15.98;62.42
76484;BME280;65318;-33.924;18.406;2023-06-26T03:10:24;99286.06;;;15.91;63.35
76484;BME280;65318;-33.924;18.406;2023-06-26T03:12:50;99285.18;;;15.74;63.14
76484;BME280;65318;-33.924;18.406;2023-06-26T03:15:15;99285.01;;;15.62;63.40
76484;BME280;65318;-33.924;18.406;2023-06-26T03:17:41;99285.60;;;15.60;64.10
76484;BME280;65318;-33.924;18.406;2023-06-26T03:20:07;99285.99;;;15.87;62.56
76484;BME280;65318;-33.924;18.406;2023-06-26T03:22:32;99283.75;;;16.18;62.29
76484;BME280;65318;-33.924;18.406;2023-06-26T03:24:58;99290.15;;;15.70;62.63
76484;BME280;65318;-33.924;18.406;2023-06-26T03:27:23;99293.46;;;16.49;61.65
76484;BME280;65318;-33.924;18.406;2023-06-26T03:29:49;99298.58;;;15.56;63.22
76484;BME280;65318;-33.924;18.406;2023-06-26T03:32:14;99297.77;;;16.36;62.04
76484;BME280;65318;-33.924;18.406;2023-06-26T03:34:40;99292.61;;;15.76;62.68
76484;BME280;65318;-33.924;18.406;2023-06-26T03:37:06;99301.27;;;15.62;63.47
76484;BME280;65318;-33.924;18.406;2023-06-26T03:39:31;99292.59;;;16.33;61.70
76484;BME280;65318;-33.924;18.406;2023-06-26T03:41:56;99295.61;;;15.71;63.29
76484;BME280;65318;-33.924;18.406;2023-06-26T03:44:23;99293.95;;;15.49;63.94
76484;BME280;65318;-33.924;18.406;2023-06-26T03:46:47;99288.98;;;15.49;63.87
76484;BME280;65318;-33.924;18.406;2023-06-26T03:49:13;99289.32;;;15.57;63.78
76484;BME280;65318;-33.924;18.406;2023-06-26T03:51:38;99287.59;;;15.50;63.92
76484;BME280;65318;-33.924;18.406;2023-06-26T03:54:04;99289.05;;;15.62;63.48
76484;BME280;65318;-33.924;18.406;2023-06-26T03:56:29;99288.90;;;16.00;61.78
76484;BME280;65318;-33.924;18.406;2023-06-26T03:58:55;99287.29;;;15.58;63.41
76484;BME280;65318;-33.924;18.406;2023-06-26T04:01:21;99285.67;;;15.56;63.57
76484;BME280;65318;-33.924;18.406;2023-06-26T04:03:46;99280.92;;;15.79;62.98
76484;BME280;65318;-33.924;18.406;2023-06-26T04:06:11;99283.79;;;15.38;63.90
76484;BME280;65318;-33.924;18.406;2023-06-26T04:08:37;99283.81;;;15.67;63.20
76484;BME280;65318;-33.924;18.406;2023-06-26T04:11:03;99286.83;;;15.70;63.10
76484;BME280;65318;-33.924;18.406;2023-06-26T04:13:28;99284.73;;;15.63;63.07
76484;BME280;65318;-33.924;18.406;2023-06-26T04:15:54;99284.49;;;15.51;63.50
76484;BME280;65318;-33.924;18.406;2023-06-26T04:18:19;99284.76;;;15.55;63.44
76484;BME280;65318;-33.924;18.406;2023-06-26T04:23:10;99287.55;;;15.39;63.77
76484;BME280;65318;-33.924;18.406;2023-06-26T04:25:36;99279.68;;;15.61;63.21
76484;BME280;65318;-33.924;18.406;2023-06-26T04:28:01;99278.27;;;15.12;63.83
76484;BME280;65318;-33.924;18.406;2023-06-26T04:30:27;99279.29;;;15.29;63.92
76484;BME280;65318;-33.924;18.406;2023-06-26T04:32:53;99281.69;;;16.12;61.75
76484;BME280;65318;-33.924;18.406;2023-06-26T04:35:18;99280.59;;;15.39;63.63
76484;BME280;65318;-33.924;18.406;2023-06-26T04:37:44;99283.23;;;17.08;59.59
76484;BME280;65318;-33.924;18.406;2023-06-26T04:40:10;99283.60;;;15.75;62.55
76484;BME280;65318;-33.924;18.406;2023-06-26T04:42:35;99286.00;;;15.40;63.56
76484;BME280;65318;-33.924;18.406;2023-06-26T04:45:00;99284.80;;;15.30;63.96
76484;BME280;65318;-33.924;18.406;2023-06-26T04:47:26;99285.70;;;15.71;62.90
76484;BME280;65318;-33.924;18.406;2023-06-26T04:49:52;99284.34;;;15.35;63.67
76484;BME280;65318;-33.924;18.406;2023-06-26T04:52:17;99279.04;;;15.35;63.88
76484;BME280;65318;-33.924;18.406;2023-06-26T04:54:42;99275.85;;;15.47;63.48
76484;BME280;65318;-33.924;18.406;2023-06-26T04:57:08;99274.55;;;15.67;62.79
76484;BME280;65318;-33.924;18.406;2023-06-26T04:59:33;99276.63;;;15.52;62.65
76484;BME280;65318;-33.924;18.406;2023-06-26T05:01:59;99285.12;;;15.74;62.69
76484;BME280;65318;-33.924;18.406;2023-06-26T05:04:24;99283.95;;;15.85;62.11
76484;BME280;65318;-33.924;18.406;2023-06-26T05:06:50;99282.71;;;15.57;62.84
76484;BME280;65318;-33.924;18.406;2023-06-26T05:09:16;99281.53;;;15.60;63.00
76484;BME280;65318;-33.924;18.406;2023-06-26T05:11:41;99278.18;;;15.52;63.03
76484;BME280;65318;-33.924;18.406;2023-06-26T05:14:07;99282.16;;;15.62;62.74
76484;BME280;65318;-33.924;18.406;2023-06-26T05:16:32;99275.49;;;15.32;63.60
76484;BME280;65318;-33.924;18.406;2023-06-26T05:18:58;99274.43;;;15.41;63.32
76484;BME280;65318;-33.924;18.406;2023-06-26T05:21:23;99272.01;;;15.44;63.24
76484;BME280;65318;-33.924;18.406;2023-06-26T05:23:50;99276.29;;;15.47;63.12
76484;BME280;65318;-33.924;18.406;2023-06-26T05:26:15;99275.62;;;15.57;62.83
76484;BME280;65318;-33.924;18.406;2023-06-26T05:28:41;99269.38;;;15.75;62.37
76484;BME280;65318;-33.924;18.406;2023-06-26T05:31:06;99274.03;;;15.33;63.48
76484;BME280;65318;-33.924;18.406;2023-06-26T05:33:31;99275.04;;;15.41;62.58
76484;BME280;65318;-33.924;18.406;2023-06-26T05:35:57;99279.02;;;15.91;63.07
76484;BME280;65318;-33.924;18.406;2023-06-26T05:38:23;99285.20;;;15.31;63.30
76484;BME280;65318;-33.924;18.406;2023-06-26T05:40:48;99283.53;;;15.20;63.57
76484;BME280;65318;-33.924;18.406;2023-06-26T05:43:14;99278.91;;;15.25;63.59
76484;BME280;65318;-33.924;18.406;2023-06-26T05:45:39;99269.41;;;15.71;62.26
76484;BME280;65318;-33.924;18.406;2023-06-26T05:48:04;99263.89;;;15.25;63.49
76484;BME280;65318;-33.924;18.406;2023-06-26T05:50:30;99265.83;;;14.93;64.18
76484;BME280;65318;-33.924;18.406;2023-06-26T05:52:56;99273.51;;;15.19;63.69
76484;BME280;65318;-33.924;18.406;2023-06-26T05:55:22;99284.59;;;15.51;62.81
76484;BME280;65318;-33.924;18.406;2023-06-26T05:57:47;99289.75;;;15.38;62.88
76484;BME280;65318;-33.924;18.406;2023-06-26T06:00:13;99282.95;;;15.40;62.83
76484;BME280;65318;-33.924;18.406;2023-06-26T06:02:38;99283.21;;;15.07;63.14
76484;BME280;65318;-33.924;18.406;2023-06-26T06:05:03;99287.08;;;15.51;62.06
76484;BME280;65318;-33.924;18.406;2023-06-26T06:07:29;99280.33;;;15.27;63.16
76484;BME280;65318;-33.924;18.406;2023-06-26T06:09:54;99286.24;;;15.36;62.91
76484;BME280;65318;-33.924;18.406;2023-06-26T06:12:19;99288.88;;;15.66;62.18
76484;BME280;65318;-33.924;18.406;2023-06-26T06:14:45;99295.17;;;15.70;62.14
76484;BME280;65318;-33.924;18.406;2023-06-26T06:17:11;99290.98;;;15.11;63.61
76484;BME280;65318;-33.924;18.406;2023-06-26T06:19:36;99289.47;;;15.01;63.95
76484;BME280;65318;-33.924;18.406;2023-06-26T06:22:02;99289.47;;;15.08;64.00
76484;BME280;65318;-33.924;18.406;2023-06-26T06:24:27;99291.05;;;15.27;63.76
76484;BME280;65318;-33.924;18.406;2023-06-26T06:26:53;99291.16;;;15.44;63.49
76484;BME280;65318;-33.924;18.406;2023-06-26T06:29:18;99290.49;;;15.90;62.56
76484;BME280;65318;-33.924;18.406;2023-06-26T06:31:44;99291.84;;;15.43;64.11
76484;BME280;65318;-33.924;18.406;2023-06-26T06:34:09;99290.05;;;15.21;64.92
76484;BME280;65318;-33.924;18.406;2023-06-26T06:36:35;99291.19;;;15.95;63.65
76484;BME280;65318;-33.924;18.406;2023-06-26T06:39:01;99287.18;;;15.52;64.87
76484;BME280;65318;-33.924;18.406;2023-06-26T06:41:26;99286.54;;;16.95;61.53
76484;BME280;65318;-33.924;18.406;2023-06-26T06:43:52;99288.57;;;16.83;61.36
76484;BME280;65318;-33.924;18.406;2023-06-26T06:46:17;99280.54;;;16.96;61.03
76484;BME280;65318;-33.924;18.406;2023-06-26T06:48:43;99284.41;;;17.15;60.71
76484;BME280;65318;-33.924;18.406;2023-06-26T06:51:08;99281.30;;;17.11;60.63
76484;BME280;65318;-33.924;18.406;2023-06-26T06:53:34;99278.06;;;17.16;60.70
76484;BME280;65318;-33.924;18.406;2023-06-26T06:55:59;99278.04;;;17.37;60.94
76484;BME280;65318;-33.924;18.406;2023-06-26T06:58:25;99280.87;;;17.22;61.46
76484;BME280;65318;-33.924;18.406;2023-06-26T07:00:51;99280.90;;;17.46;61.23
76484;BME280;65318;-33.924;18.406;2023-06-26T07:03:16;99283.83;;;17.40;61.11
76484;BME280;65318;-33.924;18.406;2023-06-26T07:05:42;99283.42;;;16.99;62.34
76484;BME280;65318;-33.924;18.406;2023-06-26T07:08:07;99282.77;;;16.85;63.03
76484;BME280;65318;-33.924;18.406;2023-06-26T07:10:32;99282.63;;;16.93;63.16
76484;BME280;65318;-33.924;18.406;2023-06-26T07:12:58;99280.67;;;17.24;63.24
76484;BME280;65318;-33.924;18.406;2023-06-26T07:15:23;99283.01;;;16.77;63.48
76484;BME280;65318;-33.924;18.406;2023-06-26T07:17:49;99280.83;;;17.32;63.07
76484;BME280;65318;-33.924;18.406;2023-06-26T07:20:14;99280.02;;;17.29;63.29
76484;BME280;65318;-33.924;18.406;2023-06-26T07:22:40;99270.67;;;17.33;62.78
76484;BME280;65318;-33.924;18.406;2023-06-26T07:25:06;99270.29;;;17.65;63.03
76484;BME280;65318;-33.924;18.406;2023-06-26T07:27:31;99275.34;;;17.71;62.89
76484;BME280;65318;-33.924;18.406;2023-06-26T07:29:56;99273.76;;;17.61;63.23
76484;BME280;65318;-33.924;18.406;2023-06-26T07:32:22;99274.59;;;17.84;62.74
76484;BME280;65318;-33.924;18.406;2023-06-26T07:34:48;99273.26;;;17.77;63.27
76484;BME280;65318;-33.924;18.406;2023-06-26T07:37:13;99274.22;;;17.90;63.19
76484;BME280;65318;-33.924;18.406;2023-06-26T07:39:39;99277.94;;;17.54;63.59
76484;BME280;65318;-33.924;18.406;2023-06-26T07:42:04;99278.14;;;17.98;63.16
76484;BME280;65318;-33.924;18.406;2023-06-26T07:44:30;99276.74;;;17.47;63.36
76484;BME280;65318;-33.924;18.406;2023-06-26T07:46:55;99279.97;;;18.00;63.21
76484;BME280;65318;-33.924;18.406;2023-06-26T07:49:21;99276.51;;;18.20;62.33
76484;BME280;65318;-33.924;18.406;2023-06-26T07:51:46;99277.26;;;18.31;62.57
76484;BME280;65318;-33.924;18.406;2023-06-26T07:54:12;99276.14;;;16.77;65.35
76484;BME280;65318;-33.924;18.406;2023-06-26T07:56:54;99274.59;;;17.77;63.08
76484;BME280;65318;-33.924;18.406;2023-06-26T07:59:03;99270.83;;;16.77;64.63
76484;BME280;65318;-33.924;18.406;2023-06-26T08:01:28;99266.30;;;18.49;60.68
76484;BME280;65318;-33.924;18.406;2023-06-26T08:03:54;99259.80;;;18.16;61.26
76484;BME280;65318;-33.924;18.406;2023-06-26T08:06:19;99272.11;;;18.50;61.06
76484;BME280;65318;-33.924;18.406;2023-06-26T08:08:45;99270.13;;;19.00;59.98
76484;BME280;65318;-33.924;18.406;2023-06-26T08:11:10;99268.61;;;18.81;60.87
76484;BME280;65318;-33.924;18.406;2023-06-26T08:13:37;99259.93;;;18.59;61.58
76484;BME280;65318;-33.924;18.406;2023-06-26T08:16:01;99267.65;;;18.12;62.41
76484;BME280;65318;-33.924;18.406;2023-06-26T08:18:27;99272.25;;;18.92;61.36
76484;BME280;65318;-33.924;18.406;2023-06-26T08:20:52;99268.85;;;18.73;61.99
76484;BME280;65318;-33.924;18.406;2023-06-26T08:23:17;99265.40;;;19.36;59.74
76484;BME280;65318;-33.924;18.406;2023-06-26T08:25:43;99268.08;;;18.70;62.09
76484;BME280;65318;-33.924;18.406;2023-06-26T08:28:09;99266.92;;;18.88;61.97
76484;BME280;65318;-33.924;18.406;2023-06-26T08:30:34;99261.82;;;19.06;61.66
76484;BME280;65318;-33.924;18.406;2023-06-26T08:32:59;99262.24;;;19.08;61.25
76484;BME280;65318;-33.924;18.406;2023-06-26T08:35:25;99261.49;;;18.74;61.65
76484;BME280;65318;-33.924;18.406;2023-06-26T08:37:50;99264.61;;;19.09;61.49
76484;BME280;65318;-33.924;18.406;2023-06-26T08:40:17;99265.78;;;18.98;61.83
76484;BME280;65318;-33.924;18.406;2023-06-26T08:42:41;99262.70;;;19.31;61.73
76484;BME280;65318;-33.924;18.406;2023-06-26T08:45:07;99262.52;;;19.17;61.23
76484;BME280;65318;-33.924;18.406;2023-06-26T08:47:35;99264.66;;;19.14;61.77
76484;BME280;65318;-33.924;18.406;2023-06-26T08:50:06;99266.84;;;18.86;61.84
76484;BME280;65318;-33.924;18.406;2023-06-26T08:52:24;99258.49;;;19.78;61.00
76484;BME280;65318;-33.924;18.406;2023-06-26T08:54:54;99261.17;;;18.85;62.06
76484;BME280;65318;-33.924;18.406;2023-06-26T08:57:18;99259.07;;;19.52;61.15
76484;BME280;65318;-33.924;18.406;2023-06-26T08:59:40;99254.99;;;19.65;61.41
76484;BME280;65318;-33.924;18.406;2023-06-26T09:02:05;99251.94;;;19.48;61.34
76484;BME280;65318;-33.924;18.406;2023-06-26T09:04:31;99246.11;;;19.25;61.42
76484;BME280;65318;-33.924;18.406;2023-06-26T09:06:56;99246.79;;;19.12;61.70
76484;BME280;65318;-33.924;18.406;2023-06-26T09:11:47;99244.87;;;19.62;60.50
76484;BME280;65318;-33.924;18.406;2023-06-26T09:14:15;99238.94;;;19.56;60.64
76484;BME280;65318;-33.924;18.406;2023-06-26T09:16:41;99237.44;;;19.48;60.50
76484;BME280;65318;-33.924;18.406;2023-06-26T09:19:04;99234.14;;;19.66;61.24
76484;BME280;65318;-33.924;18.406;2023-06-26T09:21:29;99231.90;;;20.03;61.04
76484;BME280;65318;-33.924;18.406;2023-06-26T09:23:55;99226.22;;;19.45;61.12
76484;BME280;65318;-33.924;18.406;2023-06-26T09:26:21;99225.98;;;19.32;61.57
76484;BME280;65318;-33.924;18.406;2023-06-26T09:28:46;99220.57;;;19.46;60.93
76484;BME280;65318;-33.924;18.406;2023-06-26T09:31:12;99216.11;;;18.93;59.00
76484;BME280;65318;-33.924;18.406;2023-06-26T09:33:37;99215.03;;;18.94;57.95
76484;BME280;65318;-33.924;18.406;2023-06-26T09:36:04;99215.19;;;19.36;54.90
76484;BME280;65318;-33.924;18.406;2023-06-26T09:38:28;99206.02;;;18.71;54.50
76484;BME280;65318;-33.924;18.406;2023-06-26T09:40:53;99209.76;;;18.92;53.97
76484;BME280;65318;-33.924;18.406;2023-06-26T09:43:19;99205.53;;;18.32;54.32
76484;BME280;65318;-33.924;18.406;2023-06-26T09:45:44;99204.75;;;18.69;53.45
76484;BME280;65318;-33.924;18.406;2023-06-26T09:48:11;99204.75;;;18.11;54.34
76484;BME280;65318;-33.924;18.406;2023-06-26T09:50:35;99199.07;;;18.93;52.12
76484;BME280;65318;-33.924;18.406;2023-06-26T09:53:07;99203.88;;;18.20;53.67
76484;BME280;65318;-33.924;18.406;2023-06-26T09:55:26;99200.37;;;18.84;51.99
76484;BME280;65318;-33.924;18.406;2023-06-26T09:57:53;99201.00;;;18.69;53.20
76484;BME280;65318;-33.924;18.406;2023-06-26T10:00:18;99198.07;;;18.08;53.61
76484;BME280;65318;-33.924;18.406;2023-06-26T10:02:42;99190.40;;;18.67;52.31
76484;BME280;65318;-33.924;18.406;2023-06-26T10:05:08;99183.97;;;18.15;53.12
76484;BME280;65318;-33.924;18.406;2023-06-26T10:07:33;99182.15;;;18.47;52.78
76484;BME280;65318;-33.924;18.406;2023-06-26T10:10:00;99175.89;;;18.24;53.73
76484;BME280;65318;-33.924;18.406;2023-06-26T10:12:28;99174.12;;;18.88;52.75
76484;BME280;65318;-33.924;18.406;2023-06-26T10:14:50;99169.11;;;18.55;52.93
76484;BME280;65318;-33.924;18.406;2023-06-26T10:17:19;99167.69;;;19.33;51.17
76484;BME280;65318;-33.924;18.406;2023-06-26T10:19:44;99168.91;;;19.03;51.72
76484;BME280;65318;-33.924;18.406;2023-06-26T10:22:08;99157.55;;;19.31;51.88
76484;BME280;65318;-33.924;18.406;2023-06-26T10:24:34;99149.43;;;19.26;51.03
76484;BME280;65318;-33.924;18.406;2023-06-26T10:26:59;99148.33;;;18.57;51.73
76484;BME280;65318;-33.924;18.406;2023-06-26T10:29:24;99143.65;;;18.66;51.85
76484;BME280;65318;-33.924;18.406;2023-06-26T10:31:51;99141.95;;;18.91;52.27
76484;BME280;65318;-33.924;18.406;2023-06-26T10:34:14;99134.54;;;18.67;51.34
76484;BME280;65318;-33.924;18.406;2023-06-26T10:36:39;99132.57;;;18.33;51.98
76484;BME280;65318;-33.924;18.406;2023-06-26T10:39:06;99116.90;;;18.79;51.76
76484;BME280;65318;-33.924;18.406;2023-06-26T10:41:36;99117.61;;;18.99;50.35
76484;BME280;65318;-33.924;18.406;2023-06-26T10:46:22;99105.47;;;19.42;49.27
76484;BME280;65318;-33.924;18.406;2023-06-26T10:48:56;99106.33;;;18.85;51.51
76484;BME280;65318;-33.924;18.406;2023-06-26T10:51:14;99102.34;;;18.58;51.60
76484;BME280;65318;-33.924;18.406;2023-06-26T10:53:38;99105.50;;;18.26;51.77
76484;BME280;65318;-33.924;18.406;2023-06-26T10:56:05;99099.35;;;18.27;50.74
76484;BME280;65318;-33.924;18.406;2023-06-26T10:58:31;99091.63;;;18.41;51.72
76484;BME280;65318;-33.924;18.406;2023-06-26T11:03:24;99076.24;;;18.36;50.85
76484;BME280;65318;-33.924;18.406;2023-06-26T11:05:45;99068.84;;;18.66;51.14
76484;BME280;65318;-33.924;18.406;2023-06-26T11:08:11;99064.38;;;20.10;48.25
76484;BME280;65318;-33.924;18.406;2023-06-26T11:10:49;99068.14;;;18.78;49.65
76484;BME280;65318;-33.924;18.406;2023-06-26T11:13:05;99068.12;;;19.29;49.23
76484;BME280;65318;-33.924;18.406;2023-06-26T11:15:27;99060.66;;;18.98;49.16
76484;BME280;65318;-33.924;18.406;2023-06-26T11:17:54;99053.91;;;19.29;49.22
76484;BME280;65318;-33.924;18.406;2023-06-26T11:20:18;99051.75;;;19.22;49.05
76484;BME280;65318;-33.924;18.406;2023-06-26T11:22:44;99046.62;;;18.99;49.04
76484;BME280;65318;-33.924;18.406;2023-06-26T11:25:10;99038.32;;;19.11;49.22
76484;BME280;65318;-33.924;18.406;2023-06-26T11:27:38;99033.71;;;18.94;49.54
76484;BME280;65318;-33.924;18.406;2023-06-26T11:30:00;99035.02;;;18.63;49.66
76484;BME280;65318;-33.924;18.406;2023-06-26T11:32:27;99037.93;;;19.68;48.80
76484;BME280;65318;-33.924;18.406;2023-06-26T11:34:52;99030.13;;;19.26;49.00
76484;BME280;65318;-33.924;18.406;2023-06-26T11:37:17;99023.29;;;18.51;49.79
76484;BME280;65318;-33.924;18.406;2023-06-26T11:39:43;99010.57;;;18.81;49.10
76484;BME280;65318;-33.924;18.406;2023-06-26T11:42:08;99004.60;;;18.93;49.39
76484;BME280;65318;-33.924;18.406;2023-06-26T11:44:41;98995.96;;;19.03;49.79
76484;BME280;65318;-33.924;18.406;2023-06-26T11:46:58;98993.77;;;19.02;49.51
76484;BME280;65318;-33.924;18.406;2023-06-26T11:49:24;98997.97;;;18.80;49.23
76484;BME280;65318;-33.924;18.406;2023-06-26T11:51:50;98994.09;;;19.02;49.43
76484;BME280;65318;-33.924;18.406;2023-06-26T11:54:22;98993.30;;;18.88;50.17
76484;BME280;65318;-33.924;18.406;2023-06-26T11:56:40;98986.27;;;18.87;49.08
76484;BME280;65318;-33.924;18.406;2023-06-26T11:59:11;98993.20;;;18.81;49.77
76484;BME280;65318;-33.924;18.406;2023-06-26T12:01:32;98994.11;;;19.33;49.23
76484;BME280;65318;-33.924;18.406;2023-06-26T12:03:59;98990.44;;;18.88;49.90
76484;BME280;65318;-33.924;18.406;2023-06-26T12:06:23;98986.83;;;19.33;49.78
76484;BME280;65318;-33.924;18.406;2023-06-26T12:08:47;98988.73;;;19.11;49.81
76484;BME280;65318;-33.924;18.406;2023-06-26T12:11:13;98989.06;;;18.78;50.03
76484;BME280;65318;-33.924;18.406;2023-06-26T12:13:38;98980.72;;;19.01;50.24
76484;BME280;65318;-33.924;18.406;2023-06-26T12:16:05;98973.75;;;18.59;50.52
76484;BME280;65318;-33.924;18.406;2023-06-26T12:18:35;98978.82;;;18.92;49.93
76484;BME280;65318;-33.924;18.406;2023-06-26T12:20:55;98975.42;;;18.77;50.17
76484;BME280;65318;-33.924;18.406;2023-06-26T12:23:20;98969.48;;;19.20;50.49
76484;BME280;65318;-33.924;18.406;2023-06-26T12:25:46;98965.42;;;19.05;49.92
76484;BME280;65318;-33.924;18.406;2023-06-26T12:28:17;98972.55;;;19.03;50.60
76484;BME280;65318;-33.924;18.406;2023-06-26T12:30:37;98971.93;;;19.01;50.62
76484;BME280;65318;-33.924;18.406;2023-06-26T12:33:03;98968.71;;;18.81;51.09
76484;BME280;65318;-33.924;18.406;2023-06-26T12:35:28;98974.44;;;19.43;49.76
76484;BME280;65318;-33.924;18.406;2023-06-26T12:37:54;98967.40;;;19.30;50.44
76484;BME280;65318;-33.924;18.406;2023-06-26T12:40:20;98965.50;;;19.14;50.63